createdAt,value
2023-02-04T00:01:29.837Z,4.58
2023-02-04T00:03:56.225Z,4.75
2023-02-04T00:06:22.842Z,4.72
2023-02-04T00:08:49.248Z,4.63
2023-02-04T00:11:15.694Z,4.55
2023-02-04T00:13:42.105Z,4.70
2023-02-04T00:16:08.732Z,4.72
2023-02-04T00:18:35.215Z,4.66
2023-02-04T00:21:01.919Z,4.52
2023-02-04T00:23:28.378Z,4.48
2023-02-04T00:25:54.785Z,4.54
2023-02-04T00:28:21.248Z,4.42
2023-02-04T00:30:47.686Z,4.40
2023-02-04T00:33:14.087Z,4.57
2023-02-04T00:35:42.894Z,4.56
2023-02-04T00:38:09.958Z,4.63
2023-02-04T00:40:37.325Z,4.46
2023-02-04T00:43:05.417Z,4.53
2023-02-04T00:45:32.004Z,4.33
2023-02-04T00:47:59.315Z,4.38
2023-02-04T00:50:25.808Z,4.22
2023-02-04T00:52:52.597Z,4.37
2023-02-04T00:55:19.291Z,4.29
2023-02-04T00:57:47.526Z,4.33
2023-02-04T01:00:15.483Z,4.21
2023-02-04T01:02:41.973Z,4.20
2023-02-04T01:05:09.240Z,4.07
2023-02-04T01:07:35.813Z,4.12
2023-02-04T01:10:03.474Z,4.03
2023-02-04T01:12:30.220Z,4.04
2023-02-04T01:14:56.971Z,3.97
2023-02-04T01:17:25.058Z,3.84
2023-02-04T01:19:53.490Z,3.79
2023-02-04T01:22:20.050Z,3.76
2023-02-04T01:24:46.819Z,3.71
2023-02-04T01:27:31.718Z,3.71
2023-02-04T01:29:58.194Z,3.63
2023-02-04T01:32:24.749Z,3.60
2023-02-04T01:34:52.068Z,3.62
2023-02-04T01:37:18.823Z,3.55
2023-02-04T01:39:45.311Z,3.49
2023-02-04T01:42:13.333Z,3.52
2023-02-04T01:44:40.194Z,3.46
2023-02-04T01:47:06.639Z,3.41
2023-02-04T01:49:33.239Z,3.43
2023-02-04T01:52:00.356Z,3.33
2023-02-04T01:54:27.315Z,3.37
2023-02-04T01:56:55.217Z,3.39
2023-02-04T01:59:23.214Z,3.38
2023-02-04T02:01:51.974Z,3.37
2023-02-04T02:04:23.642Z,3.39
2023-02-04T02:06:53.958Z,3.33
2023-02-04T02:09:20.960Z,3.34
2023-02-04T02:11:47.800Z,3.33
2023-02-04T02:14:14.415Z,3.43
2023-02-04T02:16:41.302Z,3.40
2023-02-04T02:19:12.224Z,3.38
2023-02-04T02:21:46.996Z,3.46
2023-02-04T02:24:26.156Z,3.40
2023-02-04T02:26:54.745Z,3.45
2023-02-04T02:29:24.696Z,3.42
2023-02-04T02:31:51.322Z,3.40
2023-02-04T02:34:17.896Z,3.38
2023-02-04T02:36:45.478Z,3.41
2023-02-04T02:39:11.980Z,3.52
2023-02-04T02:41:38.605Z,3.49
2023-02-04T02:44:05.402Z,3.47
2023-02-04T02:46:32.063Z,3.58
2023-02-04T02:48:58.533Z,3.53
2023-02-04T02:51:25.088Z,3.56
2023-02-04T02:53:52.038Z,3.52
2023-02-04T02:56:19.765Z,3.55
2023-02-04T02:58:46.658Z,3.59
2023-02-04T03:01:13.426Z,3.52
2023-02-04T03:03:46.822Z,3.57
2023-02-04T03:06:17.951Z,3.55
2023-02-04T03:08:44.939Z,3.58
2023-02-04T03:11:11.436Z,3.56
2023-02-04T03:13:38.542Z,3.56
2023-02-04T03:16:06.267Z,3.53
2023-02-04T03:18:32.881Z,3.54
2023-02-04T03:21:05.118Z,3.53
2023-02-04T03:23:33.882Z,3.54
2023-02-04T03:26:03.928Z,3.51
2023-02-04T03:28:31.551Z,3.51
2023-02-04T03:30:58.683Z,3.52
2023-02-04T03:33:31.492Z,3.63
2023-02-04T03:35:58.800Z,3.55
2023-02-04T03:38:25.261Z,3.73
2023-02-04T03:40:51.716Z,3.56
2023-02-04T03:43:18.111Z,3.57
2023-02-04T03:45:45.879Z,3.55
2023-02-04T03:48:12.699Z,3.51
2023-02-04T03:50:39.382Z,3.42
2023-02-04T03:53:05.926Z,3.41
2023-02-04T03:55:33.007Z,3.37
2023-02-04T03:57:59.810Z,3.33
2023-02-04T04:00:26.237Z,3.33
2023-02-04T04:02:52.688Z,3.30
2023-02-04T04:05:19.172Z,3.24
2023-02-04T04:07:45.726Z,3.20
2023-02-04T04:10:12.500Z,3.08
2023-02-04T04:12:39.009Z,2.96
2023-02-04T04:15:07.224Z,2.78
2023-02-04T04:17:33.734Z,2.70
2023-02-04T04:20:00.377Z,2.80
2023-02-04T04:22:27.429Z,2.69
2023-02-04T04:24:54.426Z,2.62
2023-02-04T04:27:21.306Z,2.47
2023-02-04T04:29:47.721Z,2.49
2023-02-04T04:32:14.135Z,2.36
2023-02-04T04:34:40.773Z,2.33
2023-02-04T04:37:07.162Z,2.30
2023-02-04T04:39:33.567Z,2.24
2023-02-04T04:42:00.089Z,2.20
2023-02-04T04:44:26.614Z,2.20
2023-02-04T04:46:53.183Z,2.22
2023-02-04T04:49:19.597Z,2.25
2023-02-04T04:51:46.023Z,2.27
2023-02-04T04:54:12.545Z,2.26
2023-02-04T04:56:38.951Z,2.24
2023-02-04T04:59:05.386Z,2.16
2023-02-04T05:01:31.907Z,2.12
2023-02-04T05:03:58.593Z,2.02
2023-02-04T05:06:25.418Z,2.01
2023-02-04T05:08:54.991Z,1.94
2023-02-04T05:11:21.757Z,1.95
2023-02-04T05:13:48.306Z,1.93
2023-02-04T05:16:15.168Z,1.80
2023-02-04T05:18:42.082Z,1.77
2023-02-04T05:21:08.566Z,1.70
2023-02-04T05:23:35.158Z,1.66
2023-02-04T05:26:01.837Z,1.63
2023-02-04T05:28:28.518Z,1.60
2023-02-04T05:30:54.962Z,1.57
2023-02-04T05:33:21.343Z,1.58
2023-02-04T05:35:49.852Z,1.54
2023-02-04T05:38:16.555Z,1.55
2023-02-04T05:40:42.946Z,1.50
2023-02-04T05:43:09.390Z,1.46
2023-02-04T05:45:35.879Z,1.47
2023-02-04T05:48:02.438Z,1.53
2023-02-04T05:50:28.968Z,1.58
2023-02-04T05:53:08.020Z,1.57
2023-02-04T05:55:34.732Z,1.62
2023-02-04T05:58:01.274Z,1.57
2023-02-04T06:00:27.756Z,1.53
2023-02-04T06:02:54.167Z,1.52
2023-02-04T06:05:20.851Z,1.48
2023-02-04T06:07:47.284Z,1.44
2023-02-04T06:10:13.671Z,1.40
2023-02-04T06:12:40.047Z,1.38
2023-02-04T06:15:07.142Z,1.36
2023-02-04T06:17:33.562Z,1.36
2023-02-04T06:20:00.044Z,1.39
2023-02-04T06:22:27.452Z,1.44
2023-02-04T06:24:53.987Z,1.43
2023-02-04T06:27:23.285Z,1.44
2023-02-04T06:29:53.901Z,1.45
2023-02-04T06:32:21.444Z,1.52
2023-02-04T06:34:47.869Z,1.51
2023-02-04T06:37:16.963Z,1.54
2023-02-04T06:39:43.731Z,1.71
2023-02-04T06:42:10.135Z,1.50
2023-02-04T06:44:36.717Z,1.46
2023-02-04T06:47:03.324Z,1.50
2023-02-04T06:49:29.790Z,1.47
2023-02-04T06:51:56.237Z,1.38
2023-02-04T06:54:22.630Z,1.35
2023-02-04T06:56:49.215Z,1.31
2023-02-04T06:59:15.619Z,1.27
2023-02-04T07:01:42.101Z,1.26
2023-02-04T07:04:08.605Z,1.34
2023-02-04T07:06:35.005Z,1.34
2023-02-04T07:09:02.361Z,1.43
2023-02-04T07:11:28.876Z,1.32
2023-02-04T07:13:55.299Z,1.37
2023-02-04T07:16:21.697Z,1.35
2023-02-04T07:18:48.104Z,1.42
2023-02-04T07:21:14.505Z,1.62
2023-02-04T07:23:41.148Z,1.53
2023-02-04T07:26:07.522Z,1.35
2023-02-04T07:28:36.902Z,1.30
2023-02-04T07:31:04.686Z,1.24
2023-02-04T07:33:31.178Z,1.25
2023-02-04T07:35:57.856Z,1.20
2023-02-04T07:38:24.355Z,1.18
2023-02-04T07:40:50.756Z,1.23
2023-02-04T07:43:17.244Z,1.30
2023-02-04T07:45:43.799Z,1.24
2023-02-04T07:48:10.872Z,1.17
2023-02-04T07:50:37.888Z,1.18
2023-02-04T07:53:04.302Z,1.22
2023-02-04T07:55:30.814Z,1.35
2023-02-04T07:57:57.414Z,1.32
2023-02-04T08:00:24.091Z,1.27
2023-02-04T08:02:51.036Z,1.25
2023-02-04T08:05:17.918Z,1.33
2023-02-04T08:07:44.432Z,1.35
2023-02-04T08:10:11.664Z,1.34
2023-02-04T08:12:38.194Z,1.34
2023-02-04T08:15:07.695Z,1.36
2023-02-04T08:17:34.480Z,1.39
2023-02-04T08:20:01.132Z,1.42
2023-02-04T08:22:27.823Z,1.47
2023-02-04T08:24:54.268Z,1.45
2023-02-04T08:27:20.758Z,1.47
2023-02-04T08:29:47.163Z,1.47
2023-02-04T08:32:13.558Z,1.45
2023-02-04T08:34:40.214Z,1.47
2023-02-04T08:37:06.596Z,1.47
2023-02-04T08:39:33.016Z,1.51
2023-02-04T08:41:59.747Z,1.56
2023-02-04T08:44:26.162Z,1.65
2023-02-04T08:46:52.620Z,1.55
2023-02-04T08:49:19.075Z,1.60
2023-02-04T08:51:46.146Z,1.70
2023-02-04T08:54:12.544Z,1.70
2023-02-04T08:56:38.941Z,1.87
2023-02-04T08:59:05.344Z,2.02
2023-02-04T09:01:31.743Z,2.01
2023-02-04T09:03:58.367Z,2.06
2023-02-04T09:06:24.881Z,2.12
2023-02-04T09:08:51.311Z,2.30
2023-02-04T09:11:17.738Z,2.32
2023-02-04T09:13:44.169Z,2.45
2023-02-04T09:16:10.816Z,2.55
2023-02-04T09:18:37.343Z,2.68
2023-02-04T09:21:04.109Z,2.80
2023-02-04T09:23:30.700Z,2.80
2023-02-04T09:25:57.281Z,2.90
2023-02-04T09:28:23.712Z,3.04
2023-02-04T09:30:50.171Z,3.08
2023-02-04T09:33:17.424Z,2.99
2023-02-04T09:35:43.998Z,2.97
2023-02-04T09:38:10.434Z,2.97
2023-02-04T09:40:42.733Z,3.14
2023-02-04T09:43:13.864Z,3.05
2023-02-04T09:45:40.643Z,3.16
2023-02-04T09:48:09.515Z,3.18
2023-02-04T09:50:37.046Z,3.21
2023-02-04T09:53:06.398Z,3.25
2023-02-04T09:55:37.400Z,3.25
2023-02-04T09:58:13.753Z,3.32
2023-02-04T10:00:40.171Z,3.41
2023-02-04T10:03:15.644Z,3.41
2023-02-04T10:05:42.605Z,3.38
2023-02-04T10:08:21.283Z,3.31
2023-02-04T10:10:49.508Z,3.44
2023-02-04T10:13:22.193Z,3.51
2023-02-04T10:15:51.465Z,3.60
2023-02-04T10:18:28.174Z,3.74
2023-02-04T10:21:13.996Z,3.71
2023-02-04T10:23:42.271Z,3.66
2023-02-04T10:26:12.339Z,3.87
2023-02-04T10:28:42.855Z,3.85
2023-02-04T10:31:33.594Z,3.73
2023-02-04T10:34:20.654Z,3.77
2023-02-04T10:36:49.683Z,3.72
2023-02-04T10:39:21.549Z,3.78
2023-02-04T10:41:58.872Z,3.86
2023-02-04T10:44:31.892Z,3.81
2023-02-04T10:47:17.331Z,3.88
2023-02-04T10:50:12.534Z,3.90
2023-02-04T10:52:41.833Z,4.11
2023-02-04T10:55:14.318Z,4.05
2023-02-04T10:57:42.501Z,4.22
2023-02-04T11:00:15.994Z,4.38
2023-02-04T11:03:03.747Z,4.55
2023-02-04T11:05:33.233Z,4.52
2023-02-04T11:08:25.038Z,4.59
2023-02-04T11:10:58.033Z,4.70
2023-02-04T11:13:43.403Z,4.84
2023-02-04T11:16:12.653Z,5.01
2023-02-04T11:18:49.542Z,5.03
2023-02-04T11:21:34.838Z,5.03
2023-02-04T11:24:16.433Z,4.96
2023-02-04T11:26:51.276Z,4.92
2023-02-04T11:29:34.655Z,5.07
2023-02-04T11:32:23.076Z,5.24
2023-02-04T11:34:52.868Z,5.35
2023-02-04T11:37:35.922Z,5.55
2023-02-04T11:40:20.091Z,5.47
2023-02-04T11:42:47.721Z,5.68
2023-02-04T11:45:16.152Z,5.68
2023-02-04T11:47:43.217Z,5.75
2023-02-04T11:50:22.049Z,5.71
2023-02-04T11:52:48.449Z,5.86
2023-02-04T11:55:14.926Z,5.81
2023-02-04T11:57:43.257Z,5.88
2023-02-04T12:00:17.835Z,5.69
2023-02-04T12:02:50.492Z,5.82
2023-02-04T12:05:19.396Z,5.90
2023-02-04T12:07:47.492Z,5.91
2023-02-04T12:10:16.763Z,6.09
2023-02-04T12:12:52.025Z,6.28
2023-02-04T12:15:36.210Z,5.98
2023-02-04T12:18:08.423Z,5.66
2023-02-04T12:20:36.470Z,5.61
2023-02-04T12:23:04.312Z,5.61
2023-02-04T12:25:31.770Z,5.64
2023-02-04T12:27:58.710Z,5.35
2023-02-04T12:30:26.530Z,5.27
2023-02-04T12:32:53.111Z,5.06
2023-02-04T12:35:19.884Z,4.94
2023-02-04T12:37:46.284Z,5.04
2023-02-04T12:40:18.965Z,5.06
2023-02-04T12:42:45.413Z,4.88
2023-02-04T12:45:13.801Z,4.86
2023-02-04T12:47:40.645Z,5.02
2023-02-04T12:50:08.532Z,5.03
2023-02-04T12:52:36.967Z,5.11
2023-02-04T12:55:05.314Z,5.37
2023-02-04T12:57:32.982Z,5.25
2023-02-04T13:00:01.353Z,5.12
2023-02-04T13:02:29.196Z,5.03
2023-02-04T13:04:56.843Z,5.19
2023-02-04T13:07:23.664Z,5.30
2023-02-04T13:09:50.085Z,5.48
2023-02-04T13:12:16.565Z,5.53
2023-02-04T13:14:43.441Z,5.60
2023-02-04T13:17:10.765Z,5.62
2023-02-04T13:19:37.330Z,5.56
2023-02-04T13:22:03.956Z,5.51
2023-02-04T13:24:30.464Z,5.28
2023-02-04T13:26:56.908Z,5.28
2023-02-04T13:29:23.336Z,5.14
2023-02-04T13:31:50.015Z,5.29
2023-02-04T13:34:16.500Z,5.22
2023-02-04T13:36:43.805Z,5.06
2023-02-04T13:39:10.903Z,5.05
2023-02-04T13:41:37.784Z,4.96
2023-02-04T13:44:05.260Z,5.04
2023-02-04T13:46:32.033Z,4.77
2023-02-04T13:48:58.913Z,4.72
2023-02-04T13:51:25.491Z,4.65
2023-02-04T13:53:52.026Z,4.57
2023-02-04T13:56:18.461Z,4.72
2023-02-04T13:58:45.448Z,4.76
2023-02-04T14:01:13.223Z,4.81
2023-02-04T14:03:40.309Z,4.68
2023-02-04T14:06:07.106Z,4.67
2023-02-04T14:08:33.596Z,4.73
2023-02-04T14:11:00.333Z,4.81
2023-02-04T14:13:27.317Z,4.71
2023-02-04T14:15:53.848Z,4.67
2023-02-04T14:18:20.905Z,4.72
2023-02-04T14:20:47.337Z,4.73
2023-02-04T14:23:13.788Z,4.81
2023-02-04T14:25:40.396Z,4.76
2023-02-04T14:28:07.440Z,4.63
2023-02-04T14:30:34.125Z,4.58
2023-02-04T14:33:01.361Z,4.79
2023-02-04T14:35:30.500Z,4.71
2023-02-04T14:37:57.076Z,4.67
2023-02-04T14:40:25.798Z,4.71
2023-02-04T14:42:52.472Z,4.89
2023-02-04T14:45:19.099Z,4.88
2023-02-04T14:47:45.510Z,4.90
2023-02-04T14:50:15.667Z,4.90
2023-02-04T14:52:42.354Z,4.91
2023-02-04T14:55:11.686Z,4.94
2023-02-04T14:57:38.893Z,4.71
2023-02-04T15:00:06.905Z,4.71
2023-02-04T15:02:33.370Z,4.56
2023-02-04T15:04:59.877Z,4.54
2023-02-04T15:07:26.292Z,4.49
2023-02-04T15:09:52.715Z,4.48
2023-02-04T15:12:19.143Z,4.53
2023-02-04T15:14:45.667Z,4.51
2023-02-04T15:17:12.900Z,4.48
2023-02-04T15:19:39.296Z,4.43
2023-02-04T15:22:05.706Z,4.43
2023-02-04T15:24:32.156Z,4.43
2023-02-04T15:26:58.898Z,4.58
2023-02-04T15:29:25.662Z,4.55
2023-02-04T15:31:52.251Z,4.34
2023-02-04T15:34:18.707Z,4.30
2023-02-04T15:36:45.148Z,4.38
2023-02-04T15:39:11.596Z,4.29
2023-02-04T15:41:38.088Z,4.37
2023-02-04T15:44:05.557Z,4.26
2023-02-04T15:46:32.907Z,4.24
2023-02-04T15:49:00.275Z,4.16
2023-02-04T15:51:26.786Z,4.30
2023-02-04T15:53:53.330Z,4.16
2023-02-04T15:56:19.774Z,4.06
2023-02-04T15:58:46.189Z,4.07
2023-02-04T16:01:14.636Z,4.09
2023-02-04T16:03:46.722Z,4.15
2023-02-04T16:06:13.147Z,4.00
2023-02-04T16:08:40.036Z,3.84
2023-02-04T16:11:06.608Z,3.81
2023-02-04T16:13:33.216Z,3.85
2023-02-04T16:15:59.721Z,3.81
2023-02-04T16:18:26.360Z,3.76
2023-02-04T16:20:52.811Z,3.73
2023-02-04T16:23:19.236Z,3.69
2023-02-04T16:25:45.608Z,3.68
2023-02-04T16:28:12.114Z,3.59
2023-02-04T16:30:39.299Z,3.60
2023-02-04T16:33:06.893Z,3.53
2023-02-04T16:36:03.776Z,3.53
2023-02-04T16:38:31.243Z,3.56
2023-02-04T16:40:58.127Z,3.64
2023-02-04T16:43:24.797Z,3.49
2023-02-04T16:45:51.889Z,3.36
2023-02-04T16:48:18.578Z,3.32
2023-02-04T16:50:45.024Z,3.30
2023-02-04T16:53:15.736Z,3.28
2023-02-04T16:55:43.483Z,3.23
2023-02-04T16:58:11.343Z,3.32
2023-02-04T17:00:41.736Z,3.23
2023-02-04T17:03:09.429Z,3.14
2023-02-04T17:05:36.191Z,3.12
2023-02-04T17:08:03.166Z,3.17
2023-02-04T17:10:48.451Z,3.12
2023-02-04T17:13:14.995Z,3.13
2023-02-04T17:15:41.505Z,3.23
2023-02-04T17:18:08.188Z,3.11
2023-02-04T17:20:34.819Z,3.03
2023-02-04T17:23:01.472Z,2.97
2023-02-04T17:25:27.971Z,2.99
2023-02-04T17:27:55.886Z,3.00
2023-02-04T17:30:22.518Z,3.01
2023-02-04T17:32:48.932Z,2.90
2023-02-04T17:35:17.224Z,2.87
2023-02-04T17:37:43.904Z,2.88
2023-02-04T17:40:13.027Z,2.85
2023-02-04T17:42:40.836Z,2.84
2023-02-04T17:45:10.552Z,2.78
2023-02-04T17:47:38.363Z,2.78
2023-02-04T17:50:07.665Z,2.81
2023-02-04T17:52:34.361Z,2.74
2023-02-04T17:55:02.207Z,2.73
2023-02-04T17:57:28.920Z,2.75
2023-02-04T17:59:55.480Z,2.74
2023-02-04T18:02:30.279Z,2.66
2023-02-04T18:05:05.618Z,2.59
2023-02-04T18:07:32.067Z,2.59
2023-02-04T18:10:19.042Z,2.59
2023-02-04T18:12:45.453Z,2.61
2023-02-04T18:15:29.574Z,2.60
2023-02-04T18:18:00.391Z,2.60
2023-02-04T18:20:27.433Z,2.55
2023-02-04T18:22:59.072Z,2.55
2023-02-04T18:25:25.669Z,2.48
2023-02-04T18:27:52.660Z,2.45
2023-02-04T18:30:22.066Z,2.43
2023-02-04T18:32:49.821Z,2.45
2023-02-04T18:35:31.477Z,2.42
2023-02-04T18:37:57.926Z,2.43
2023-02-04T18:40:30.833Z,2.39
2023-02-04T18:43:24.594Z,2.41
2023-02-04T18:45:51.755Z,2.41
2023-02-04T18:48:18.076Z,2.45
2023-02-04T18:50:46.569Z,2.45
2023-02-04T18:53:12.886Z,2.43
2023-02-04T18:55:40.540Z,2.46
2023-02-04T18:58:36.165Z,2.50
2023-02-04T19:01:04.379Z,2.43
2023-02-04T19:03:37.490Z,2.39
2023-02-04T19:06:16.857Z,2.36
2023-02-04T19:08:44.773Z,2.48
2023-02-04T19:11:33.955Z,2.38
2023-02-04T19:14:04.618Z,2.43
2023-02-04T19:16:36.634Z,2.42
2023-02-04T19:19:25.009Z,2.38
2023-02-04T19:21:51.781Z,2.39
2023-02-04T19:24:24.434Z,2.40
2023-02-04T19:26:56.232Z,2.46
2023-02-04T19:29:22.796Z,2.40
2023-02-04T19:31:52.825Z,2.36
2023-02-04T19:34:33.380Z,2.35
2023-02-04T19:37:00.365Z,2.44
2023-02-04T19:39:41.505Z,2.36
2023-02-04T19:42:35.024Z,2.40
2023-02-04T19:45:13.820Z,2.35
2023-02-04T19:47:44.953Z,2.33
2023-02-04T19:50:14.887Z,2.34
2023-02-04T19:52:48.309Z,2.30
2023-02-04T19:55:17.717Z,2.29
2023-02-04T19:57:49.726Z,2.30
2023-02-04T20:00:28.973Z,2.34
2023-02-04T20:02:57.540Z,2.32
2023-02-04T20:05:24.216Z,2.25
2023-02-04T20:07:50.617Z,2.21
2023-02-04T20:10:24.612Z,2.24
2023-02-04T20:12:55.623Z,2.26
2023-02-04T20:15:25.540Z,2.30
2023-02-04T20:17:52.814Z,2.29
2023-02-04T20:20:29.437Z,2.28
2023-02-04T20:22:58.313Z,2.34
2023-02-04T20:25:33.966Z,2.33
2023-02-04T20:28:11.579Z,2.23
2023-02-04T20:30:38.276Z,2.23
2023-02-04T20:33:28.367Z,2.37
2023-02-04T20:36:26.049Z,2.23
2023-02-04T20:39:16.767Z,2.29
2023-02-04T20:41:43.311Z,2.23
2023-02-04T20:44:16.815Z,2.13
2023-02-04T20:46:43.552Z,2.02
2023-02-04T20:49:23.708Z,2.01
2023-02-04T20:51:51.611Z,2.01
2023-02-04T20:54:18.670Z,2.01
2023-02-04T20:56:45.480Z,2.01
2023-02-04T20:59:11.911Z,2.06
2023-02-04T21:01:41.498Z,2.08
2023-02-04T21:04:17.107Z,2.06
2023-02-04T21:06:43.751Z,2.03
2023-02-04T21:09:22.559Z,2.00
2023-02-04T21:11:49.278Z,2.09
2023-02-04T21:14:15.675Z,2.12
2023-02-04T21:16:42.138Z,1.92
2023-02-04T21:19:10.000Z,1.92
2023-02-04T21:21:36.538Z,1.97
2023-02-04T21:24:04.290Z,1.84
2023-02-04T21:26:30.855Z,1.83
2023-02-04T21:28:57.229Z,1.66
2023-02-04T21:31:23.730Z,1.60
2023-02-04T21:33:50.172Z,1.61
2023-02-04T21:36:16.607Z,1.54
2023-02-04T21:38:43.058Z,1.63
2023-02-04T21:41:09.551Z,1.55
2023-02-04T21:43:36.036Z,1.43
2023-02-04T21:46:02.775Z,1.54
2023-02-04T21:48:29.348Z,1.39
2023-02-04T21:50:55.810Z,1.42
2023-02-04T21:53:22.528Z,1.39
2023-02-04T21:55:48.897Z,1.36
2023-02-04T21:58:15.320Z,1.49
2023-02-04T22:00:41.747Z,1.35
2023-02-04T22:03:12.874Z,1.35
2023-02-04T22:05:39.520Z,1.35
2023-02-04T22:08:06.092Z,1.30
2023-02-04T22:10:32.525Z,1.28
2023-02-04T22:12:59.288Z,1.27
2023-02-04T22:15:25.941Z,1.32
2023-02-04T22:17:53.655Z,1.18
2023-02-04T22:20:22.270Z,1.22
2023-02-04T22:22:49.441Z,1.15
2023-02-04T22:25:17.579Z,1.05
2023-02-04T22:27:44.189Z,1.09
2023-02-04T22:30:12.229Z,1.15
2023-02-04T22:32:39.398Z,1.12
2023-02-04T22:35:07.768Z,1.09
2023-02-04T22:37:35.296Z,0.96
2023-02-04T22:40:06.129Z,0.92
2023-02-04T22:42:32.747Z,0.89
2023-02-04T22:44:59.499Z,0.82
2023-02-04T22:47:25.963Z,0.85
2023-02-04T22:49:52.324Z,0.90
2023-02-04T22:52:18.741Z,0.88
2023-02-04T22:54:45.175Z,0.82
2023-02-04T22:57:11.686Z,0.69
2023-02-04T22:59:38.298Z,0.67
2023-02-04T23:02:04.840Z,0.63
2023-02-04T23:04:31.423Z,0.72
2023-02-04T23:06:58.116Z,0.69
2023-02-04T23:09:24.598Z,0.64
2023-02-04T23:11:51.078Z,0.55
2023-02-04T23:14:17.533Z,0.55
2023-02-04T23:16:44.102Z,0.60
2023-02-04T23:19:10.534Z,0.52
2023-02-04T23:21:37.109Z,0.52
2023-02-04T23:24:03.619Z,0.59
2023-02-04T23:26:30.030Z,0.52
2023-02-04T23:28:58.047Z,0.58
2023-02-04T23:31:24.680Z,0.54
2023-02-04T23:33:51.059Z,0.49
2023-02-04T23:36:17.496Z,0.52
2023-02-04T23:38:43.910Z,0.46
2023-02-04T23:41:10.330Z,0.47
2023-02-04T23:43:36.705Z,0.45
2023-02-04T23:46:03.529Z,0.43
2023-02-04T23:48:30.154Z,0.40
2023-02-04T23:50:59.590Z,0.41
2023-02-04T23:53:26.061Z,0.39
2023-02-04T23:55:52.538Z,0.36
2023-02-04T23:58:19.270Z,0.39
